createdAt,value
2022-08-26T00:00:59.123Z,94876.78
2022-08-26T00:03:25.679Z,94880.75
2022-08-26T00:05:52.195Z,94880.59
2022-08-26T00:08:19.971Z,94876.81
2022-08-26T00:10:46.591Z,94882.25
2022-08-26T00:13:13.454Z,94876.50
2022-08-26T00:15:40.749Z,94881.53
2022-08-26T00:18:16.771Z,94885.88
2022-08-26T00:20:49.020Z,94873.97
2022-08-26T00:23:15.670Z,94876.28
2022-08-26T00:25:44.926Z,94870.34
2022-08-26T00:28:11.893Z,94877.97
2022-08-26T00:30:38.883Z,94873.97
2022-08-26T00:33:05.658Z,94871.25
2022-08-26T00:35:32.686Z,94871.25
2022-08-26T00:38:00.828Z,94863.41
2022-08-26T00:40:34.271Z,94876.50
2022-08-26T00:43:02.119Z,94875.13
2022-08-26T00:45:51.501Z,94880.78
2022-08-26T00:48:20.394Z,94879.81
2022-08-26T00:50:54.989Z,94886.53
2022-08-26T00:53:25.995Z,94870.50
2022-08-26T00:56:04.426Z,94871.44
2022-08-26T00:58:32.725Z,94872.41
2022-08-26T01:01:00.079Z,94875.31
2022-08-26T01:03:28.022Z,94878.69
2022-08-26T01:05:57.369Z,94879.34
2022-08-26T01:08:24.720Z,94880.25
2022-08-26T01:10:52.148Z,94885.97
2022-08-26T01:13:23.927Z,94888.81
2022-08-26T01:15:56.392Z,94891.31
2022-08-26T01:18:23.428Z,94886.13
2022-08-26T01:21:16.654Z,94895.13
2022-08-26T01:23:48.358Z,94891.81
2022-08-26T01:26:36.136Z,94889.88
2022-08-26T01:29:04.762Z,94891.28
2022-08-26T01:31:39.088Z,94888.66
2022-08-26T01:34:10.836Z,94885.25
2022-08-26T01:36:39.039Z,94888.41
2022-08-26T01:39:07.243Z,94887.41
2022-08-26T01:41:34.779Z,94884.84
2022-08-26T01:44:02.094Z,94897.88
2022-08-26T01:46:30.540Z,94885.69
2022-08-26T01:48:59.094Z,94889.44
2022-08-26T01:51:26.617Z,94890.97
2022-08-26T01:53:53.861Z,94889.75
2022-08-26T01:56:22.102Z,94894.53
2022-08-26T01:58:52.206Z,94906.34
2022-08-26T02:01:19.619Z,94900.28
2022-08-26T02:03:56.305Z,94909.13
2022-08-26T02:06:23.015Z,94901.25
2022-08-26T02:08:52.728Z,94904.09
2022-08-26T02:11:19.154Z,94897.22
2022-08-26T02:13:52.679Z,94894.59
2022-08-26T02:16:24.061Z,94896.06
2022-08-26T02:18:53.346Z,94895.47
2022-08-26T02:21:20.059Z,94898.28
2022-08-26T02:23:46.685Z,94907.69
2022-08-26T02:26:17.878Z,94905.88
2022-08-26T02:29:07.698Z,94906.97
2022-08-26T02:31:34.565Z,94903.78
2022-08-26T02:34:13.656Z,94902.13
2022-08-26T02:36:42.026Z,94898.78
2022-08-26T02:39:09.120Z,94898.78
2022-08-26T02:41:36.162Z,94894.78
2022-08-26T02:44:11.809Z,94895.69
2022-08-26T02:46:38.735Z,94888.22
2022-08-26T02:49:06.681Z,94897.34
2022-08-26T02:51:33.216Z,94890.50
2022-08-26T02:53:59.851Z,94896.22
2022-08-26T02:56:28.712Z,94893.13
2022-08-26T02:58:55.579Z,94891.22
2022-08-26T03:01:24.797Z,94894.56
2022-08-26T03:03:52.002Z,94896.59
2022-08-26T03:06:18.872Z,94892.53
2022-08-26T03:08:45.909Z,94891.53
2022-08-26T03:11:13.788Z,94894.78
2022-08-26T03:13:41.817Z,94892.69
2022-08-26T03:16:08.753Z,94883.00
2022-08-26T03:18:35.945Z,94893.00
2022-08-26T03:21:12.063Z,94879.91
2022-08-26T03:23:39.969Z,94891.22
2022-08-26T03:26:07.637Z,94895.88
2022-08-26T03:28:38.321Z,94896.47
2022-08-26T03:31:05.020Z,94892.56
2022-08-26T03:33:31.502Z,94890.66
2022-08-26T03:35:58.340Z,94893.19
2022-08-26T03:38:24.851Z,94889.50
2022-08-26T03:40:51.542Z,94885.38
2022-08-26T03:43:19.221Z,94887.84
2022-08-26T03:45:45.986Z,94885.69
2022-08-26T03:48:12.721Z,94895.94
2022-08-26T03:50:39.362Z,94894.03
2022-08-26T03:53:07.512Z,94893.84
2022-08-26T03:55:39.532Z,94890.81
2022-08-26T03:58:06.176Z,94890.22
2022-08-26T04:00:32.706Z,94889.84
2022-08-26T04:03:01.172Z,94896.41
2022-08-26T04:05:28.430Z,94899.44
2022-08-26T04:07:55.007Z,94892.56
2022-08-26T04:10:22.430Z,94894.16
2022-08-26T04:12:58.849Z,94900.28
2022-08-26T04:15:26.361Z,94895.44
2022-08-26T04:17:53.208Z,94902.44
2022-08-26T04:20:20.838Z,94902.66
2022-08-26T04:22:47.347Z,94897.75
2022-08-26T04:25:14.077Z,94900.22
2022-08-26T04:27:40.777Z,94903.25
2022-08-26T04:30:07.975Z,94906.03
2022-08-26T04:32:35.487Z,94900.06
2022-08-26T04:35:03.698Z,94906.22
2022-08-26T04:37:31.195Z,94903.53
2022-08-26T04:39:59.296Z,94896.06
2022-08-26T04:42:26.435Z,94899.53
2022-08-26T04:44:59.119Z,94902.50
2022-08-26T04:47:29.185Z,94907.41
2022-08-26T04:49:58.727Z,94902.97
2022-08-26T04:52:25.295Z,94906.00
2022-08-26T04:54:51.949Z,94909.78
2022-08-26T04:57:19.015Z,94905.22
2022-08-26T04:59:45.549Z,94907.56
2022-08-26T05:02:12.645Z,94901.28
2022-08-26T05:04:39.173Z,94901.59
2022-08-26T05:07:05.680Z,94893.63
2022-08-26T05:09:32.983Z,94892.84
2022-08-26T05:11:59.502Z,94896.22
2022-08-26T05:14:26.071Z,94899.56
2022-08-26T05:16:52.573Z,94891.97
2022-08-26T05:19:19.744Z,94905.09
2022-08-26T05:21:48.053Z,94902.16
2022-08-26T05:24:14.918Z,94891.91
2022-08-26T05:26:41.697Z,94897.50
2022-08-26T05:29:11.076Z,94900.56
2022-08-26T05:31:37.679Z,94901.03
2022-08-26T05:34:04.277Z,94897.22
2022-08-26T05:36:32.720Z,94905.00
2022-08-26T05:39:00.999Z,94897.72
2022-08-26T05:41:34.248Z,94903.25
2022-08-26T05:44:06.126Z,94899.59
2022-08-26T05:46:35.877Z,94912.97
2022-08-26T05:49:04.200Z,94913.03
2022-08-26T05:51:31.110Z,94913.13
2022-08-26T05:53:58.166Z,94919.16
2022-08-26T05:56:30.339Z,94923.97
2022-08-26T05:58:58.347Z,94923.50
2022-08-26T06:01:26.456Z,94921.13
2022-08-26T06:03:55.879Z,94918.47
2022-08-26T06:06:27.318Z,94918.47
2022-08-26T06:08:56.532Z,94911.47
2022-08-26T06:11:24.457Z,94918.69
2022-08-26T06:13:51.950Z,94926.16
2022-08-26T06:16:19.688Z,94927.63
2022-08-26T06:18:47.904Z,94925.75
2022-08-26T06:21:19.537Z,94937.19
2022-08-26T06:23:48.344Z,94930.97
2022-08-26T06:26:17.119Z,94929.22
2022-08-26T06:28:45.429Z,94934.47
2022-08-26T06:31:12.797Z,94927.16
2022-08-26T06:33:39.386Z,94921.75
2022-08-26T06:36:06.303Z,94928.59
2022-08-26T06:38:32.915Z,94921.28
2022-08-26T06:41:00.081Z,94938.16
2022-08-26T06:43:28.575Z,94934.31
2022-08-26T06:46:04.271Z,94934.50
2022-08-26T06:48:32.071Z,94938.47
2022-08-26T06:51:08.966Z,94941.66
2022-08-26T06:53:37.159Z,94941.81
2022-08-26T06:56:05.855Z,94947.41
2022-08-26T06:58:33.621Z,94944.81
2022-08-26T07:01:03.744Z,94943.72
2022-08-26T07:03:39.492Z,94940.88
2022-08-26T07:06:06.558Z,94938.16
2022-08-26T07:08:33.901Z,94949.47
2022-08-26T07:11:05.065Z,94951.84
2022-08-26T07:13:31.583Z,94952.94
2022-08-26T07:15:58.235Z,94961.78
2022-08-26T07:18:29.771Z,94951.13
2022-08-26T07:20:56.484Z,94958.91
2022-08-26T07:23:23.258Z,94957.53
2022-08-26T07:25:50.785Z,94961.19
2022-08-26T07:28:17.317Z,94958.50
2022-08-26T07:30:43.856Z,94953.69
2022-08-26T07:33:10.408Z,94960.69
2022-08-26T07:35:37.496Z,94961.53
2022-08-26T07:38:03.990Z,94968.38
2022-08-26T07:40:32.155Z,94970.72
2022-08-26T07:43:00.124Z,94963.03
2022-08-26T07:45:27.631Z,94960.06
2022-08-26T07:47:54.520Z,94958.81
2022-08-26T07:50:21.314Z,94966.44
2022-08-26T07:53:08.153Z,94961.47
2022-08-26T07:55:37.320Z,94970.31
2022-08-26T07:58:05.753Z,94969.28
2022-08-26T08:00:33.436Z,94969.72
2022-08-26T08:03:02.149Z,94967.38
2022-08-26T08:05:33.417Z,94970.09
2022-08-26T08:08:27.263Z,94977.97
2022-08-26T08:10:48.867Z,94968.66
2022-08-26T08:13:15.837Z,94976.06
2022-08-26T08:15:42.466Z,94968.66
2022-08-26T08:18:15.779Z,94972.19
2022-08-26T08:20:47.674Z,94964.91
2022-08-26T08:23:25.906Z,94958.22
2022-08-26T08:26:01.104Z,94965.25
2022-08-26T08:28:27.807Z,94958.75
2022-08-26T08:30:54.374Z,94963.44
2022-08-26T08:33:20.894Z,94960.06
2022-08-26T08:35:48.156Z,94954.50
2022-08-26T08:38:15.147Z,94961.53
2022-08-26T08:40:44.553Z,94952.03
2022-08-26T08:43:28.507Z,94967.81
2022-08-26T08:46:07.382Z,94963.63
2022-08-26T08:48:37.734Z,94955.88
2022-08-26T08:51:10.916Z,94967.09
2022-08-26T08:53:40.653Z,94967.75
2022-08-26T08:56:07.085Z,94977.16
2022-08-26T08:58:47.309Z,94978.44
2022-08-26T09:01:42.559Z,94968.66
2022-08-26T09:04:30.816Z,94977.50
2022-08-26T09:07:00.453Z,94980.00
2022-08-26T09:09:36.282Z,94980.66
2022-08-26T09:12:04.933Z,94978.03
2022-08-26T09:14:34.323Z,94982.66
2022-08-26T09:17:25.539Z,94986.84
2022-08-26T09:19:54.561Z,94975.91
2022-08-26T09:22:35.467Z,94987.53
2022-08-26T09:25:05.673Z,94987.34
2022-08-26T09:27:44.232Z,94987.41
2022-08-26T09:30:15.247Z,95001.69
2022-08-26T09:32:42.303Z,94996.06
2022-08-26T09:35:24.128Z,94993.09
2022-08-26T09:40:34.520Z,94990.75
2022-08-26T09:43:12.770Z,94995.75
2022-08-26T09:45:41.260Z,94997.38
2022-08-26T09:48:26.136Z,95001.63
2022-08-26T09:51:01.621Z,94999.75
2022-08-26T09:53:31.171Z,94998.75
2022-08-26T09:56:31.674Z,94994.78
2022-08-26T09:58:59.965Z,94998.84
2022-08-26T10:01:33.396Z,94995.38
2022-08-26T10:04:11.022Z,94996.16
2022-08-26T10:06:55.986Z,94986.28
2022-08-26T10:09:24.291Z,94986.84
2022-08-26T10:11:57.355Z,94996.03
2022-08-26T10:14:30.035Z,94997.13
2022-08-26T10:17:09.667Z,94982.81
2022-08-26T10:19:55.916Z,94983.69
2022-08-26T10:22:44.609Z,94983.47
2022-08-26T10:25:17.447Z,94979.25
2022-08-26T10:27:53.406Z,94981.25
2022-08-26T10:30:24.067Z,94987.63
2022-08-26T10:32:56.743Z,94980.19
2022-08-26T10:35:23.338Z,94983.31
2022-08-26T10:38:01.787Z,94974.75
2022-08-26T10:40:40.504Z,94983.25
2022-08-26T10:43:19.420Z,94974.69
2022-08-26T10:45:52.311Z,94983.81
2022-08-26T10:48:35.309Z,94973.88
2022-08-26T10:51:04.170Z,94986.53
2022-08-26T10:53:51.783Z,94986.56
2022-08-26T10:56:19.207Z,94982.78
2022-08-26T10:59:16.377Z,94978.66
2022-08-26T11:01:43.050Z,94974.81
2022-08-26T11:04:22.566Z,94978.84
2022-08-26T11:06:49.757Z,94971.88
2022-08-26T11:09:43.580Z,94966.47
2022-08-26T11:12:37.383Z,94977.03
2022-08-26T11:15:06.885Z,94969.41
2022-08-26T11:17:45.262Z,94980.53
2022-08-26T11:20:13.690Z,94976.09
2022-08-26T11:22:48.044Z,94983.59
2022-08-26T11:25:16.283Z,94976.84
2022-08-26T11:27:47.804Z,94975.47
2022-08-26T11:30:15.489Z,94975.81
2022-08-26T11:32:55.041Z,94973.00
2022-08-26T11:35:21.481Z,94964.84
2022-08-26T11:37:47.958Z,94969.88
2022-08-26T11:40:21.496Z,94968.16
2022-08-26T11:42:53.332Z,94962.09
2022-08-26T11:45:25.826Z,94959.56
2022-08-26T11:47:53.211Z,94960.03
2022-08-26T11:50:25.652Z,94957.75
2022-08-26T11:52:54.731Z,94963.00
2022-08-26T11:55:23.482Z,94956.28
2022-08-26T11:57:54.752Z,94953.19
2022-08-26T12:00:33.570Z,94956.59
2022-08-26T12:03:02.687Z,94956.16
2022-08-26T12:05:31.617Z,94946.66
2022-08-26T12:08:02.849Z,94952.69
2022-08-26T12:10:32.160Z,94953.22
2022-08-26T12:13:00.466Z,94954.31
2022-08-26T12:15:29.632Z,94950.19
2022-08-26T12:17:56.264Z,94948.38
2022-08-26T12:20:32.893Z,94945.75
2022-08-26T12:22:59.491Z,94941.94
2022-08-26T12:25:26.129Z,94948.34
2022-08-26T12:27:54.055Z,94946.34
2022-08-26T12:30:24.618Z,94943.31
2022-08-26T12:33:03.920Z,94934.88
2022-08-26T12:35:51.439Z,94942.59
2022-08-26T12:38:21.101Z,94928.94
2022-08-26T12:40:48.296Z,94936.84
2022-08-26T12:43:38.479Z,94932.91
2022-08-26T12:46:06.751Z,94937.31
2022-08-26T12:48:35.819Z,94943.53
2022-08-26T12:51:02.918Z,94936.84
2022-08-26T12:53:32.293Z,94925.94
2022-08-26T12:56:04.368Z,94927.84
2022-08-26T12:58:36.525Z,94926.84
2022-08-26T13:01:06.000Z,94924.13
2022-08-26T13:03:35.286Z,94920.06
2022-08-26T13:06:29.335Z,94909.75
2022-08-26T13:09:00.885Z,94909.50
2022-08-26T13:11:32.109Z,94910.44
2022-08-26T13:14:07.693Z,94916.31
2022-08-26T13:16:35.437Z,94913.31
2022-08-26T13:19:05.100Z,94909.94
2022-08-26T13:21:37.314Z,94906.97
2022-08-26T13:24:09.529Z,94910.59
2022-08-26T13:26:36.048Z,94911.63
2022-08-26T13:29:04.512Z,94911.59
2022-08-26T13:31:33.741Z,94918.41
2022-08-26T13:34:02.553Z,94917.88
2022-08-26T13:36:29.266Z,94916.22
2022-08-26T13:38:55.781Z,94904.94
2022-08-26T13:41:29.417Z,94907.72
2022-08-26T13:43:56.805Z,94894.16
2022-08-26T13:46:26.003Z,94901.97
2022-08-26T13:48:52.577Z,94897.84
2022-08-26T13:51:19.513Z,94896.41
2022-08-26T13:53:46.336Z,94886.53
2022-08-26T13:56:12.956Z,94894.38
2022-08-26T13:58:39.601Z,94894.72
2022-08-26T14:01:06.953Z,94889.97
2022-08-26T14:03:33.565Z,94886.78
2022-08-26T14:06:00.123Z,94888.84
2022-08-26T14:08:26.784Z,94878.63
2022-08-26T14:10:53.269Z,94880.44
2022-08-26T14:13:19.831Z,94875.44
2022-08-26T14:15:46.622Z,94873.53
2022-08-26T14:18:15.270Z,94872.28
2022-08-26T14:20:47.257Z,94867.06
2022-08-26T14:23:20.654Z,94872.53
2022-08-26T14:25:47.405Z,94869.34
2022-08-26T14:28:14.081Z,94869.91
2022-08-26T14:30:42.439Z,94868.06
2022-08-26T14:33:12.293Z,94860.56
2022-08-26T14:35:39.490Z,94854.88
2022-08-26T14:38:07.634Z,94851.91
2022-08-26T14:40:34.330Z,94860.88
2022-08-26T14:43:05.345Z,94846.47
2022-08-26T14:45:33.585Z,94851.31
2022-08-26T14:48:00.158Z,94853.00
2022-08-26T14:50:26.863Z,94846.75
2022-08-26T14:52:54.016Z,94849.47
2022-08-26T14:55:20.567Z,94847.47
2022-08-26T14:57:47.127Z,94856.97
2022-08-26T15:00:13.740Z,94855.00
2022-08-26T15:02:40.412Z,94849.91
2022-08-26T15:05:07.631Z,94847.19
2022-08-26T15:07:34.503Z,94852.97
2022-08-26T15:10:01.201Z,94848.75
2022-08-26T15:12:27.704Z,94848.50
2022-08-26T15:14:54.574Z,94847.94
2022-08-26T15:17:21.097Z,94841.50
2022-08-26T15:19:47.670Z,94846.88
2022-08-26T15:22:14.529Z,94843.19
2022-08-26T15:24:41.158Z,94845.75
2022-08-26T15:27:07.699Z,94835.59
2022-08-26T15:29:36.359Z,94844.47
2022-08-26T15:32:03.332Z,94845.06
2022-08-26T15:34:29.843Z,94843.84
2022-08-26T15:36:56.382Z,94836.88
2022-08-26T15:39:23.008Z,94834.94
2022-08-26T15:41:49.853Z,94835.13
2022-08-26T15:44:16.646Z,94835.00
2022-08-26T15:46:43.548Z,94828.31
2022-08-26T15:49:17.826Z,94826.94
2022-08-26T15:51:46.379Z,94820.94
2022-08-26T15:54:13.870Z,94821.31
2022-08-26T15:56:40.465Z,94823.97
2022-08-26T15:59:07.406Z,94828.47
2022-08-26T16:01:34.617Z,94830.00
2022-08-26T16:04:01.781Z,94831.28
2022-08-26T16:06:31.873Z,94830.47
2022-08-26T16:08:58.774Z,94841.34
2022-08-26T16:11:26.360Z,94853.25
2022-08-26T16:13:52.894Z,94846.88
2022-08-26T16:16:19.526Z,94856.28
2022-08-26T16:18:46.138Z,94854.66
2022-08-26T16:21:17.335Z,94866.75
2022-08-26T16:23:45.349Z,94858.34
2022-08-26T16:26:15.550Z,94865.72
2022-08-26T16:28:43.616Z,94846.44
2022-08-26T16:31:13.251Z,94855.50
2022-08-26T16:33:39.900Z,94854.56
2022-08-26T16:36:07.521Z,94859.63
2022-08-26T16:38:34.949Z,94854.09
2022-08-26T16:41:02.180Z,94845.97
2022-08-26T16:43:28.981Z,94843.41
2022-08-26T16:45:55.688Z,94847.38
2022-08-26T16:48:22.531Z,94857.22
2022-08-26T16:50:49.448Z,94855.84
2022-08-26T16:53:16.213Z,94849.78
2022-08-26T16:55:47.456Z,94843.56
2022-08-26T16:58:14.145Z,94838.31
2022-08-26T17:00:40.744Z,94837.22
2022-08-26T17:03:07.421Z,94832.09
2022-08-26T17:05:34.177Z,94833.88
2022-08-26T17:08:00.750Z,94833.88
2022-08-26T17:10:28.810Z,94842.28
2022-08-26T17:12:58.850Z,94841.53
2022-08-26T17:15:25.552Z,94841.50
2022-08-26T17:17:53.624Z,94844.22
2022-08-26T17:20:21.975Z,94859.31
2022-08-26T17:22:49.876Z,94844.69
2022-08-26T17:25:28.769Z,94840.69
2022-08-26T17:30:24.831Z,94847.25
2022-08-26T17:32:51.934Z,94843.56
2022-08-26T17:35:19.231Z,94846.25
2022-08-26T17:37:45.768Z,94836.66
2022-08-26T17:40:15.636Z,94831.72
2022-08-26T17:42:42.297Z,94830.47
2022-08-26T17:45:09.600Z,94830.16
2022-08-26T17:47:39.062Z,94835.25
2022-08-26T17:50:11.010Z,94835.44
2022-08-26T17:52:38.044Z,94835.22
2022-08-26T17:55:09.154Z,94845.34
2022-08-26T17:57:40.553Z,94840.50
2022-08-26T18:00:15.886Z,94840.78
2022-08-26T18:02:42.829Z,94843.03
2022-08-26T18:05:11.516Z,94832.63
2022-08-26T18:07:43.743Z,94844.97
2022-08-26T18:10:13.282Z,94848.47
2022-08-26T18:12:40.560Z,94849.19
2022-08-26T18:15:07.683Z,94845.63
2022-08-26T18:17:34.231Z,94849.41
2022-08-26T18:20:00.833Z,94843.25
2022-08-26T18:22:27.370Z,94852.56
2022-08-26T18:24:58.692Z,94858.59
2022-08-26T18:27:28.176Z,94857.50
2022-08-26T18:29:54.913Z,94858.28
2022-08-26T18:32:21.418Z,94864.00
2022-08-26T18:34:47.972Z,94867.19
2022-08-26T18:37:14.543Z,94866.69
2022-08-26T18:39:41.340Z,94862.97
2022-08-26T18:42:08.308Z,94868.50
2022-08-26T18:44:34.847Z,94872.00
2022-08-26T18:47:01.631Z,94873.69
2022-08-26T18:49:28.139Z,94875.03
2022-08-26T18:51:54.763Z,94886.88
2022-08-26T18:56:53.304Z,94876.34
2022-08-26T18:59:19.949Z,94875.91
2022-08-26T19:01:57.653Z,94877.50
2022-08-26T19:04:24.284Z,94887.91
2022-08-26T19:06:51.395Z,94891.03
2022-08-26T19:09:19.326Z,94892.84
2022-08-26T19:11:48.827Z,94889.44
2022-08-26T19:14:16.692Z,94879.38
2022-08-26T19:16:45.944Z,94883.03
2022-08-26T19:19:13.068Z,94874.84
2022-08-26T19:21:39.854Z,94883.00
2022-08-26T19:24:12.988Z,94887.84
2022-08-26T19:26:39.507Z,94890.03
2022-08-26T19:29:06.264Z,94886.06
2022-08-26T19:31:32.871Z,94885.25
2022-08-26T19:33:59.421Z,94880.44
2022-08-26T19:36:27.623Z,94891.09
2022-08-26T19:38:55.111Z,94886.25
2022-08-26T19:41:36.680Z,94886.25
2022-08-26T19:44:08.924Z,94891.06
2022-08-26T19:46:36.012Z,94889.72
2022-08-26T19:49:02.794Z,94893.63
2022-08-26T19:51:31.189Z,94886.50
2022-08-26T19:53:59.719Z,94880.16
2022-08-26T19:56:27.824Z,94882.59
2022-08-26T19:58:55.051Z,94896.56
2022-08-26T20:01:22.389Z,94889.22
2022-08-26T20:03:49.570Z,94893.31
2022-08-26T20:06:17.152Z,94898.28
2022-08-26T20:08:45.824Z,94892.06
2022-08-26T20:11:15.415Z,94905.50
2022-08-26T20:13:41.965Z,94897.88
2022-08-26T20:16:09.070Z,94899.41
2022-08-26T20:18:35.737Z,94895.28
2022-08-26T20:21:02.467Z,94897.66
2022-08-26T20:23:28.951Z,94897.97
2022-08-26T20:25:55.734Z,94895.94
2022-08-26T20:28:22.238Z,94896.91
2022-08-26T20:30:48.739Z,94902.56
2022-08-26T20:33:15.276Z,94899.41
2022-08-26T20:35:41.782Z,94894.13
2022-08-26T20:38:08.502Z,94898.34
2022-08-26T20:40:35.560Z,94899.34
2022-08-26T20:43:02.173Z,94895.84
2022-08-26T20:45:29.238Z,94901.88
2022-08-26T20:47:55.803Z,94900.25
2022-08-26T20:50:22.350Z,94886.78
2022-08-26T20:52:48.897Z,94899.44
2022-08-26T20:55:15.448Z,94902.16
2022-08-26T20:57:41.967Z,94907.16
2022-08-26T21:00:09.340Z,94907.25
2022-08-26T21:02:39.768Z,94900.94
2022-08-26T21:05:06.890Z,94903.09
2022-08-26T21:07:35.578Z,94909.25
2022-08-26T21:10:02.792Z,94909.84
2022-08-26T21:12:29.641Z,94916.19
2022-08-26T21:14:56.235Z,94910.94
2022-08-26T21:17:25.341Z,94914.66
2022-08-26T21:19:51.830Z,94907.09
2022-08-26T21:22:19.393Z,94917.63
2022-08-26T21:24:46.132Z,94914.22
2022-08-26T21:27:12.912Z,94919.91
2022-08-26T21:29:50.717Z,94916.81
2022-08-26T21:32:18.569Z,94915.41
2022-08-26T21:34:45.113Z,94920.53
2022-08-26T21:37:15.423Z,94912.53
2022-08-26T21:39:43.212Z,94914.31
2022-08-26T21:42:09.831Z,94916.66
2022-08-26T21:44:36.351Z,94910.38
2022-08-26T21:47:03.248Z,94903.19
2022-08-26T21:49:29.819Z,94908.34
2022-08-26T21:51:56.723Z,94904.94
2022-08-26T21:54:23.524Z,94903.84
2022-08-26T21:56:50.377Z,94913.81
2022-08-26T21:59:18.697Z,94904.88
2022-08-26T22:01:45.579Z,94904.56
2022-08-26T22:04:12.357Z,94901.81
2022-08-26T22:06:42.698Z,94911.22
2022-08-26T22:09:10.030Z,94909.63
2022-08-26T22:11:36.669Z,94915.22
2022-08-26T22:14:03.208Z,94915.03
2022-08-26T22:16:29.793Z,94913.13
2022-08-26T22:18:57.188Z,94915.44
2022-08-26T22:21:25.788Z,94912.41
2022-08-26T22:23:52.558Z,94909.50
2022-08-26T22:26:26.758Z,94910.78
2022-08-26T22:28:59.070Z,94906.59
2022-08-26T22:31:38.388Z,94911.53
2022-08-26T22:34:12.855Z,94915.50
2022-08-26T22:36:43.560Z,94918.78
2022-08-26T22:39:11.776Z,94921.50
2022-08-26T22:41:38.268Z,94924.16
2022-08-26T22:44:05.608Z,94916.97
2022-08-26T22:46:32.091Z,94924.50
2022-08-26T22:48:59.078Z,94926.19
2022-08-26T22:51:25.866Z,94922.41
2022-08-26T22:53:52.381Z,94917.50
2022-08-26T22:56:18.897Z,94918.78
2022-08-26T22:58:45.436Z,94920.06
2022-08-26T23:01:11.998Z,94920.28
2022-08-26T23:03:41.920Z,94920.94
2022-08-26T23:06:09.400Z,94925.31
2022-08-26T23:08:36.876Z,94921.91
2022-08-26T23:11:07.663Z,94920.38
2022-08-26T23:13:34.155Z,94916.00
2022-08-26T23:16:07.176Z,94916.59
2022-08-26T23:18:33.839Z,94919.78
2022-08-26T23:21:00.435Z,94904.75
2022-08-26T23:23:26.961Z,94908.13
2022-08-26T23:25:55.232Z,94907.75
2022-08-26T23:28:22.029Z,94909.84
2022-08-26T23:30:48.785Z,94904.38
2022-08-26T23:33:15.571Z,94906.88
2022-08-26T23:35:42.259Z,94903.81
2022-08-26T23:38:08.785Z,94891.28
2022-08-26T23:40:36.865Z,94904.09
2022-08-26T23:43:05.589Z,94894.00
2022-08-26T23:45:33.184Z,94897.19
2022-08-26T23:48:00.289Z,94896.91
2022-08-26T23:50:29.761Z,94885.91
2022-08-26T23:52:56.298Z,94888.09
2022-08-26T23:55:23.163Z,94888.88
2022-08-26T23:57:50.236Z,94883.59
